sensor_id;sensor_type;location;lat;lon;timestamp;P1;durP1;ratioP1;P2;durP2;ratioP2
76256;SDS011;65074;50.436;8.672;2023-07-29T00:01:06;5.88;;;4.80;;
76256;SDS011;65074;50.436;8.672;2023-07-29T00:03:31;5.60;;;4.47;;
76256;SDS011;65074;50.436;8.672;2023-07-29T00:05:57;6.57;;;5.03;;
76256;SDS011;65074;50.436;8.672;2023-07-29T00:08:22;5.28;;;4.63;;
76256;SDS011;65074;50.436;8.672;2023-07-29T00:10:48;6.20;;;5.00;;
76256;SDS011;65074;50.436;8.672;2023-07-29T00:13:13;7.35;;;4.45;;
76256;SDS011;65074;50.436;8.672;2023-07-29T00:15:38;5.83;;;4.60;;
76256;SDS011;65074;50.436;8.672;2023-07-29T00:18:03;5.87;;;4.57;;
76256;SDS011;65074;50.436;8.672;2023-07-29T00:20:28;6.53;;;4.27;;
76256;SDS011;65074;50.436;8.672;2023-07-29T00:22:54;6.67;;;4.77;;
76256;SDS011;65074;50.436;8.672;2023-07-29T00:25:20;5.82;;;4.60;;
76256;SDS011;65074;50.436;8.672;2023-07-29T00:27:45;5.00;;;4.50;;
76256;SDS011;65074;50.436;8.672;2023-07-29T00:30:10;6.90;;;4.00;;
76256;SDS011;65074;50.436;8.672;2023-07-29T00:32:36;5.55;;;3.72;;
76256;SDS011;65074;50.436;8.672;2023-07-29T00:35:01;3.95;;;3.35;;
76256;SDS011;65074;50.436;8.672;2023-07-29T00:37:30;3.92;;;3.40;;
76256;SDS011;65074;50.436;8.672;2023-07-29T00:39:55;5.15;;;3.33;;
76256;SDS011;65074;50.436;8.672;2023-07-29T00:42:20;3.50;;;3.20;;
76256;SDS011;65074;50.436;8.672;2023-07-29T00:44:46;4.20;;;3.50;;
76256;SDS011;65074;50.436;8.672;2023-07-29T00:47:12;3.70;;;3.30;;
76256;SDS011;65074;50.436;8.672;2023-07-29T00:49:39;5.43;;;4.25;;
76256;SDS011;65074;50.436;8.672;2023-07-29T00:52:04;4.03;;;3.30;;
76256;SDS011;65074;50.436;8.672;2023-07-29T00:54:29;3.70;;;3.05;;
76256;SDS011;65074;50.436;8.672;2023-07-29T00:56:55;3.60;;;3.10;;
76256;SDS011;65074;50.436;8.672;2023-07-29T00:59:20;4.30;;;3.38;;
76256;SDS011;65074;50.436;8.672;2023-07-29T01:01:45;4.57;;;3.67;;
76256;SDS011;65074;50.436;8.672;2023-07-29T01:04:11;6.83;;;3.70;;
76256;SDS011;65074;50.436;8.672;2023-07-29T01:09:24;4.13;;;3.65;;
76256;SDS011;65074;50.436;8.672;2023-07-29T01:16:56;5.88;;;4.47;;
76256;SDS011;65074;50.436;8.672;2023-07-29T01:19:48;6.05;;;5.03;;
76256;SDS011;65074;50.436;8.672;2023-07-29T01:22:10;6.88;;;5.13;;
76256;SDS011;65074;50.436;8.672;2023-07-29T01:24:35;9.15;;;5.20;;
76256;SDS011;65074;50.436;8.672;2023-07-29T01:27:00;8.93;;;5.07;;
76256;SDS011;65074;50.436;8.672;2023-07-29T01:29:27;7.63;;;5.25;;
76256;SDS011;65074;50.436;8.672;2023-07-29T01:31:52;6.05;;;4.82;;
76256;SDS011;65074;50.436;8.672;2023-07-29T01:34:35;7.38;;;4.70;;
76256;SDS011;65074;50.436;8.672;2023-07-29T01:37:02;8.55;;;5.30;;
76256;SDS011;65074;50.436;8.672;2023-07-29T01:39:31;7.90;;;5.63;;
76256;SDS011;65074;50.436;8.672;2023-07-29T01:41:57;8.75;;;5.68;;
76256;SDS011;65074;50.436;8.672;2023-07-29T01:44:23;6.75;;;5.43;;
76256;SDS011;65074;50.436;8.672;2023-07-29T01:46:49;7.78;;;5.00;;
76256;SDS011;65074;50.436;8.672;2023-07-29T01:49:15;7.97;;;5.50;;
76256;SDS011;65074;50.436;8.672;2023-07-29T01:51:40;9.35;;;6.00;;
76256;SDS011;65074;50.436;8.672;2023-07-29T01:54:05;10.17;;;6.23;;
76256;SDS011;65074;50.436;8.672;2023-07-29T01:56:30;8.25;;;5.65;;
76256;SDS011;65074;50.436;8.672;2023-07-29T01:58:56;6.72;;;5.70;;
76256;SDS011;65074;50.436;8.672;2023-07-29T02:01:22;9.20;;;5.70;;
76256;SDS011;65074;50.436;8.672;2023-07-29T02:03:47;9.70;;;5.90;;
76256;SDS011;65074;50.436;8.672;2023-07-29T02:06:18;8.63;;;6.07;;
76256;SDS011;65074;50.436;8.672;2023-07-29T02:08:43;7.80;;;5.90;;
76256;SDS011;65074;50.436;8.672;2023-07-29T02:11:08;7.13;;;5.50;;
76256;SDS011;65074;50.436;8.672;2023-07-29T02:13:34;8.60;;;5.93;;
76256;SDS011;65074;50.436;8.672;2023-07-29T02:15:59;7.80;;;5.90;;
76256;SDS011;65074;50.436;8.672;2023-07-29T02:18:24;9.00;;;6.43;;
76256;SDS011;65074;50.436;8.672;2023-07-29T02:20:50;8.48;;;5.88;;
76256;SDS011;65074;50.436;8.672;2023-07-29T02:23:15;9.00;;;5.97;;
76256;SDS011;65074;50.436;8.672;2023-07-29T02:25:42;7.60;;;6.05;;
76256;SDS011;65074;50.436;8.672;2023-07-29T02:28:07;8.90;;;6.17;;
76256;SDS011;65074;50.436;8.672;2023-07-29T02:30:32;8.98;;;7.00;;
76256;SDS011;65074;50.436;8.672;2023-07-29T02:32:58;9.43;;;6.70;;
76256;SDS011;65074;50.436;8.672;2023-07-29T02:35:24;10.90;;;6.70;;
76256;SDS011;65074;50.436;8.672;2023-07-29T02:37:50;9.20;;;6.43;;
76256;SDS011;65074;50.436;8.672;2023-07-29T02:40:19;8.30;;;6.43;;
76256;SDS011;65074;50.436;8.672;2023-07-29T02:42:46;9.73;;;6.78;;
76256;SDS011;65074;50.436;8.672;2023-07-29T02:45:11;11.25;;;6.47;;
76256;SDS011;65074;50.436;8.672;2023-07-29T02:47:39;11.98;;;7.30;;
76256;SDS011;65074;50.436;8.672;2023-07-29T02:50:05;10.98;;;6.97;;
76256;SDS011;65074;50.436;8.672;2023-07-29T02:52:30;10.45;;;7.55;;
76256;SDS011;65074;50.436;8.672;2023-07-29T02:54:56;12.27;;;7.45;;
76256;SDS011;65074;50.436;8.672;2023-07-29T02:57:21;9.80;;;6.57;;
76256;SDS011;65074;50.436;8.672;2023-07-29T02:59:46;8.83;;;6.23;;
76256;SDS011;65074;50.436;8.672;2023-07-29T03:02:11;10.97;;;6.77;;
76256;SDS011;65074;50.436;8.672;2023-07-29T03:04:37;9.47;;;6.63;;
76256;SDS011;65074;50.436;8.672;2023-07-29T03:07:02;9.82;;;6.50;;
76256;SDS011;65074;50.436;8.672;2023-07-29T03:09:28;8.35;;;5.45;;
76256;SDS011;65074;50.436;8.672;2023-07-29T03:11:53;8.18;;;5.78;;
76256;SDS011;65074;50.436;8.672;2023-07-29T03:14:20;8.27;;;5.45;;
76256;SDS011;65074;50.436;8.672;2023-07-29T03:16:46;6.97;;;5.00;;
76256;SDS011;65074;50.436;8.672;2023-07-29T03:19:11;9.18;;;5.00;;
76256;SDS011;65074;50.436;8.672;2023-07-29T03:21:37;11.57;;;6.47;;
76256;SDS011;65074;50.436;8.672;2023-07-29T03:24:02;10.52;;;6.75;;
76256;SDS011;65074;50.436;8.672;2023-07-29T03:26:28;12.18;;;7.10;;
76256;SDS011;65074;50.436;8.672;2023-07-29T03:28:53;12.70;;;7.37;;
76256;SDS011;65074;50.436;8.672;2023-07-29T03:31:18;13.73;;;7.13;;
76256;SDS011;65074;50.436;8.672;2023-07-29T03:33:44;15.55;;;9.27;;
76256;SDS011;65074;50.436;8.672;2023-07-29T03:36:09;14.13;;;9.13;;
76256;SDS011;65074;50.436;8.672;2023-07-29T03:38:35;17.10;;;8.87;;
76256;SDS011;65074;50.436;8.672;2023-07-29T03:41:04;15.60;;;10.00;;
76256;SDS011;65074;50.436;8.672;2023-07-29T03:43:30;17.70;;;9.68;;
76256;SDS011;65074;50.436;8.672;2023-07-29T03:45:57;18.55;;;10.38;;
76256;SDS011;65074;50.436;8.672;2023-07-29T03:48:23;19.73;;;11.35;;
76256;SDS011;65074;50.436;8.672;2023-07-29T03:50:48;20.70;;;10.52;;
76256;SDS011;65074;50.436;8.672;2023-07-29T03:53:14;19.77;;;10.75;;
76256;SDS011;65074;50.436;8.672;2023-07-29T03:55:39;17.57;;;9.93;;
76256;SDS011;65074;50.436;8.672;2023-07-29T03:58:04;17.17;;;10.13;;
76256;SDS011;65074;50.436;8.672;2023-07-29T04:00:30;17.20;;;10.48;;
76256;SDS011;65074;50.436;8.672;2023-07-29T04:02:55;16.38;;;9.38;;
76256;SDS011;65074;50.436;8.672;2023-07-29T04:05:20;16.23;;;10.00;;
76256;SDS011;65074;50.436;8.672;2023-07-29T04:07:46;15.50;;;9.50;;
76256;SDS011;65074;50.436;8.672;2023-07-29T04:10:12;14.30;;;9.20;;
76256;SDS011;65074;50.436;8.672;2023-07-29T04:12:38;14.27;;;8.65;;
76256;SDS011;65074;50.436;8.672;2023-07-29T04:15:03;13.23;;;8.18;;
76256;SDS011;65074;50.436;8.672;2023-07-29T04:17:28;13.00;;;8.43;;
76256;SDS011;65074;50.436;8.672;2023-07-29T04:19:54;10.53;;;7.70;;
76256;SDS011;65074;50.436;8.672;2023-07-29T04:22:22;10.38;;;7.28;;
76256;SDS011;65074;50.436;8.672;2023-07-29T04:24:47;10.23;;;6.80;;
76256;SDS011;65074;50.436;8.672;2023-07-29T04:27:13;10.87;;;7.10;;
76256;SDS011;65074;50.436;8.672;2023-07-29T04:29:38;8.77;;;6.15;;
76256;SDS011;65074;50.436;8.672;2023-07-29T04:32:03;9.93;;;6.23;;
76256;SDS011;65074;50.436;8.672;2023-07-29T04:34:29;9.93;;;6.22;;
76256;SDS011;65074;50.436;8.672;2023-07-29T04:36:54;8.87;;;6.20;;
76256;SDS011;65074;50.436;8.672;2023-07-29T04:39:19;7.07;;;5.43;;
76256;SDS011;65074;50.436;8.672;2023-07-29T04:41:45;7.78;;;5.32;;
76256;SDS011;65074;50.436;8.672;2023-07-29T04:44:10;8.87;;;5.70;;
76256;SDS011;65074;50.436;8.672;2023-07-29T04:46:35;7.37;;;5.10;;
76256;SDS011;65074;50.436;8.672;2023-07-29T04:49:01;9.05;;;5.47;;
76256;SDS011;65074;50.436;8.672;2023-07-29T04:51:26;6.20;;;4.70;;
76256;SDS011;65074;50.436;8.672;2023-07-29T04:53:51;6.90;;;5.43;;
76256;SDS011;65074;50.436;8.672;2023-07-29T04:56:16;8.40;;;5.70;;
76256;SDS011;65074;50.436;8.672;2023-07-29T04:58:44;7.18;;;5.65;;
76256;SDS011;65074;50.436;8.672;2023-07-29T05:01:09;7.37;;;5.40;;
76256;SDS011;65074;50.436;8.672;2023-07-29T05:03:34;5.75;;;4.85;;
76256;SDS011;65074;50.436;8.672;2023-07-29T05:06:01;7.38;;;5.03;;
76256;SDS011;65074;50.436;8.672;2023-07-29T05:08:27;8.13;;;5.53;;
76256;SDS011;65074;50.436;8.672;2023-07-29T05:10:52;9.07;;;5.87;;
76256;SDS011;65074;50.436;8.672;2023-07-29T05:13:18;8.87;;;5.83;;
76256;SDS011;65074;50.436;8.672;2023-07-29T05:15:43;11.57;;;6.72;;
76256;SDS011;65074;50.436;8.672;2023-07-29T05:18:09;7.90;;;5.55;;
76256;SDS011;65074;50.436;8.672;2023-07-29T05:20:34;8.33;;;6.20;;
76256;SDS011;65074;50.436;8.672;2023-07-29T05:23:00;9.38;;;6.18;;
76256;SDS011;65074;50.436;8.672;2023-07-29T05:25:26;8.75;;;5.75;;
76256;SDS011;65074;50.436;8.672;2023-07-29T05:27:52;8.90;;;6.40;;
76256;SDS011;65074;50.436;8.672;2023-07-29T05:30:17;7.70;;;6.13;;
76256;SDS011;65074;50.436;8.672;2023-07-29T05:32:42;7.37;;;5.57;;
76256;SDS011;65074;50.436;8.672;2023-07-29T05:35:07;8.38;;;6.43;;
76256;SDS011;65074;50.436;8.672;2023-07-29T05:37:33;7.18;;;5.18;;
76256;SDS011;65074;50.436;8.672;2023-07-29T05:39:59;7.43;;;5.20;;
76256;SDS011;65074;50.436;8.672;2023-07-29T05:42:24;7.10;;;5.75;;
76256;SDS011;65074;50.436;8.672;2023-07-29T05:44:49;6.53;;;5.07;;
76256;SDS011;65074;50.436;8.672;2023-07-29T05:47:15;6.20;;;4.65;;
76256;SDS011;65074;50.436;8.672;2023-07-29T05:49:40;6.47;;;4.30;;
76256;SDS011;65074;50.436;8.672;2023-07-29T05:52:07;7.25;;;4.57;;
76256;SDS011;65074;50.436;8.672;2023-07-29T05:54:32;5.78;;;4.30;;
76256;SDS011;65074;50.436;8.672;2023-07-29T05:56:58;4.35;;;3.60;;
76256;SDS011;65074;50.436;8.672;2023-07-29T05:59:23;4.90;;;4.00;;
76256;SDS011;65074;50.436;8.672;2023-07-29T06:01:49;5.05;;;3.88;;
76256;SDS011;65074;50.436;8.672;2023-07-29T06:04:14;4.72;;;4.18;;
76256;SDS011;65074;50.436;8.672;2023-07-29T06:06:40;6.22;;;4.47;;
76256;SDS011;65074;50.436;8.672;2023-07-29T06:09:05;7.78;;;5.18;;
76256;SDS011;65074;50.436;8.672;2023-07-29T06:11:30;5.43;;;4.90;;
76256;SDS011;65074;50.436;8.672;2023-07-29T06:13:56;7.07;;;5.17;;
76256;SDS011;65074;50.436;8.672;2023-07-29T06:16:21;6.93;;;5.17;;
76256;SDS011;65074;50.436;8.672;2023-07-29T06:18:46;5.85;;;4.40;;
76256;SDS011;65074;50.436;8.672;2023-07-29T06:21:12;6.07;;;5.15;;
76256;SDS011;65074;50.436;8.672;2023-07-29T06:23:42;5.45;;;4.70;;
76256;SDS011;65074;50.436;8.672;2023-07-29T06:26:07;7.68;;;4.57;;
76256;SDS011;65074;50.436;8.672;2023-07-29T06:28:32;5.90;;;4.67;;
76256;SDS011;65074;50.436;8.672;2023-07-29T06:30:58;5.60;;;4.43;;
76256;SDS011;65074;50.436;8.672;2023-07-29T06:33:23;5.93;;;4.40;;
76256;SDS011;65074;50.436;8.672;2023-07-29T06:35:48;4.73;;;4.13;;
76256;SDS011;65074;50.436;8.672;2023-07-29T06:38:13;6.50;;;4.97;;
76256;SDS011;65074;50.436;8.672;2023-07-29T06:40:39;7.80;;;4.35;;
76256;SDS011;65074;50.436;8.672;2023-07-29T06:43:04;5.03;;;4.53;;
76256;SDS011;65074;50.436;8.672;2023-07-29T06:45:29;5.22;;;3.92;;
76256;SDS011;65074;50.436;8.672;2023-07-29T06:47:54;5.97;;;4.27;;
76256;SDS011;65074;50.436;8.672;2023-07-29T06:50:23;6.50;;;4.95;;
76256;SDS011;65074;50.436;8.672;2023-07-29T06:52:48;6.97;;;5.07;;
76256;SDS011;65074;50.436;8.672;2023-07-29T06:55:13;6.70;;;5.27;;
76256;SDS011;65074;50.436;8.672;2023-07-29T06:57:38;8.87;;;5.50;;
76256;SDS011;65074;50.436;8.672;2023-07-29T07:00:04;7.73;;;5.17;;
76256;SDS011;65074;50.436;8.672;2023-07-29T07:02:32;7.45;;;5.85;;
76256;SDS011;65074;50.436;8.672;2023-07-29T07:04:58;7.95;;;5.93;;
76256;SDS011;65074;50.436;8.672;2023-07-29T07:07:23;8.98;;;5.88;;
76256;SDS011;65074;50.436;8.672;2023-07-29T07:09:48;6.03;;;5.43;;
76256;SDS011;65074;50.436;8.672;2023-07-29T07:12:13;7.67;;;5.40;;
76256;SDS011;65074;50.436;8.672;2023-07-29T07:14:39;8.97;;;5.37;;
76256;SDS011;65074;50.436;8.672;2023-07-29T07:17:04;9.87;;;6.00;;
76256;SDS011;65074;50.436;8.672;2023-07-29T07:19:29;10.15;;;5.88;;
76256;SDS011;65074;50.436;8.672;2023-07-29T07:21:55;9.13;;;6.60;;
76256;SDS011;65074;50.436;8.672;2023-07-29T07:24:20;9.73;;;6.67;;
76256;SDS011;65074;50.436;8.672;2023-07-29T07:26:45;9.03;;;6.27;;
76256;SDS011;65074;50.436;8.672;2023-07-29T07:29:10;8.47;;;5.97;;
76256;SDS011;65074;50.436;8.672;2023-07-29T07:31:35;8.27;;;5.70;;
76256;SDS011;65074;50.436;8.672;2023-07-29T07:34:01;8.43;;;6.20;;
76256;SDS011;65074;50.436;8.672;2023-07-29T07:36:28;6.60;;;5.88;;
76256;SDS011;65074;50.436;8.672;2023-07-29T07:38:53;9.63;;;5.70;;
76256;SDS011;65074;50.436;8.672;2023-07-29T07:41:18;8.97;;;6.00;;
76256;SDS011;65074;50.436;8.672;2023-07-29T07:43:43;7.10;;;6.10;;
76256;SDS011;65074;50.436;8.672;2023-07-29T07:46:09;7.80;;;5.87;;
76256;SDS011;65074;50.436;8.672;2023-07-29T07:48:34;7.63;;;6.17;;
76256;SDS011;65074;50.436;8.672;2023-07-29T07:50:59;7.45;;;6.05;;
76256;SDS011;65074;50.436;8.672;2023-07-29T07:53:24;7.53;;;6.30;;
76256;SDS011;65074;50.436;8.672;2023-07-29T07:55:51;8.20;;;5.93;;
76256;SDS011;65074;50.436;8.672;2023-07-29T07:58:16;7.18;;;5.53;;
76256;SDS011;65074;50.436;8.672;2023-07-29T08:00:41;9.40;;;5.95;;
76256;SDS011;65074;50.436;8.672;2023-07-29T08:03:06;6.37;;;5.67;;
76256;SDS011;65074;50.436;8.672;2023-07-29T08:05:32;6.37;;;4.93;;
76256;SDS011;65074;50.436;8.672;2023-07-29T08:07:57;4.93;;;4.28;;
76256;SDS011;65074;50.436;8.672;2023-07-29T08:10:22;3.75;;;3.00;;
76256;SDS011;65074;50.436;8.672;2023-07-29T08:12:48;4.73;;;2.73;;
76256;SDS011;65074;50.436;8.672;2023-07-29T08:15:13;4.97;;;2.50;;
76256;SDS011;65074;50.436;8.672;2023-07-29T08:17:38;2.50;;;2.30;;
76256;SDS011;65074;50.436;8.672;2023-07-29T08:20:03;4.03;;;2.10;;
76256;SDS011;65074;50.436;8.672;2023-07-29T08:22:29;4.38;;;2.33;;
76256;SDS011;65074;50.436;8.672;2023-07-29T08:24:54;2.70;;;2.20;;
76256;SDS011;65074;50.436;8.672;2023-07-29T08:27:19;3.20;;;2.20;;
76256;SDS011;65074;50.436;8.672;2023-07-29T08:29:44;3.13;;;2.10;;
76256;SDS011;65074;50.436;8.672;2023-07-29T08:32:10;2.93;;;2.33;;
76256;SDS011;65074;50.436;8.672;2023-07-29T08:34:35;2.33;;;1.67;;
76256;SDS011;65074;50.436;8.672;2023-07-29T08:37:01;2.63;;;1.63;;
76256;SDS011;65074;50.436;8.672;2023-07-29T08:39:26;2.92;;;1.70;;
76256;SDS011;65074;50.436;8.672;2023-07-29T08:42:07;3.67;;;2.25;;
76256;SDS011;65074;50.436;8.672;2023-07-29T08:44:35;2.28;;;1.42;;
76256;SDS011;65074;50.436;8.672;2023-07-29T08:47:00;2.38;;;2.17;;
76256;SDS011;65074;50.436;8.672;2023-07-29T08:49:26;1.92;;;1.70;;
76256;SDS011;65074;50.436;8.672;2023-07-29T08:51:51;2.42;;;2.00;;
76256;SDS011;65074;50.436;8.672;2023-07-29T08:54:18;1.88;;;1.75;;
76256;SDS011;65074;50.436;8.672;2023-07-29T08:56:43;2.17;;;1.58;;
76256;SDS011;65074;50.436;8.672;2023-07-29T08:59:09;1.67;;;1.55;;
76256;SDS011;65074;50.436;8.672;2023-07-29T09:01:36;2.03;;;1.58;;
76256;SDS011;65074;50.436;8.672;2023-07-29T09:04:01;1.35;;;1.15;;
76256;SDS011;65074;50.436;8.672;2023-07-29T09:06:27;1.48;;;1.20;;
76256;SDS011;65074;50.436;8.672;2023-07-29T09:08:53;1.65;;;1.13;;
76256;SDS011;65074;50.436;8.672;2023-07-29T09:11:18;1.52;;;1.25;;
76256;SDS011;65074;50.436;8.672;2023-07-29T09:13:44;1.52;;;1.23;;
76256;SDS011;65074;50.436;8.672;2023-07-29T09:16:09;1.20;;;1.10;;
76256;SDS011;65074;50.436;8.672;2023-07-29T09:18:35;2.70;;;1.08;;
76256;SDS011;65074;50.436;8.672;2023-07-29T09:21:00;3.10;;;1.30;;
76256;SDS011;65074;50.436;8.672;2023-07-29T09:23:32;1.23;;;0.88;;
76256;SDS011;65074;50.436;8.672;2023-07-29T09:26:03;1.20;;;1.10;;
76256;SDS011;65074;50.436;8.672;2023-07-29T09:28:29;1.23;;;1.13;;
76256;SDS011;65074;50.436;8.672;2023-07-29T09:30:57;1.52;;;1.00;;
76256;SDS011;65074;50.436;8.672;2023-07-29T09:33:22;3.20;;;1.10;;
76256;SDS011;65074;50.436;8.672;2023-07-29T09:35:50;1.85;;;0.90;;
76256;SDS011;65074;50.436;8.672;2023-07-29T09:38:16;1.20;;;0.90;;
76256;SDS011;65074;50.436;8.672;2023-07-29T09:40:41;1.83;;;1.00;;
76256;SDS011;65074;50.436;8.672;2023-07-29T09:43:08;2.60;;;1.20;;
76256;SDS011;65074;50.436;8.672;2023-07-29T09:45:34;1.15;;;0.90;;
76256;SDS011;65074;50.436;8.672;2023-07-29T09:48:00;1.75;;;1.10;;
76256;SDS011;65074;50.436;8.672;2023-07-29T09:50:26;1.33;;;1.00;;
76256;SDS011;65074;50.436;8.672;2023-07-29T09:52:52;1.00;;;0.88;;
76256;SDS011;65074;50.436;8.672;2023-07-29T09:55:18;2.10;;;0.93;;
76256;SDS011;65074;50.436;8.672;2023-07-29T09:57:44;1.40;;;1.10;;
76256;SDS011;65074;50.436;8.672;2023-07-29T10:00:13;1.27;;;1.00;;
76256;SDS011;65074;50.436;8.672;2023-07-29T10:02:39;0.98;;;0.80;;
76256;SDS011;65074;50.436;8.672;2023-07-29T10:05:05;1.40;;;1.08;;
76256;SDS011;65074;50.436;8.672;2023-07-29T10:07:30;1.25;;;1.15;;
76256;SDS011;65074;50.436;8.672;2023-07-29T10:09:56;1.20;;;1.05;;
76256;SDS011;65074;50.436;8.672;2023-07-29T10:12:22;1.00;;;0.80;;
76256;SDS011;65074;50.436;8.672;2023-07-29T10:14:49;1.38;;;0.90;;
76256;SDS011;65074;50.436;8.672;2023-07-29T10:17:15;1.55;;;1.00;;
76256;SDS011;65074;50.436;8.672;2023-07-29T10:19:40;1.30;;;1.10;;
76256;SDS011;65074;50.436;8.672;2023-07-29T10:22:07;2.08;;;1.30;;
76256;SDS011;65074;50.436;8.672;2023-07-29T10:24:33;1.20;;;1.10;;
76256;SDS011;65074;50.436;8.672;2023-07-29T10:27:00;1.63;;;1.00;;
76256;SDS011;65074;50.436;8.672;2023-07-29T10:29:28;1.30;;;1.10;;
76256;SDS011;65074;50.436;8.672;2023-07-29T10:31:53;1.10;;;1.00;;
76256;SDS011;65074;50.436;8.672;2023-07-29T10:34:20;1.20;;;1.05;;
76256;SDS011;65074;50.436;8.672;2023-07-29T10:36:46;1.30;;;1.17;;
76256;SDS011;65074;50.436;8.672;2023-07-29T10:39:13;1.73;;;1.15;;
76256;SDS011;65074;50.436;8.672;2023-07-29T10:41:57;1.13;;;1.03;;
76256;SDS011;65074;50.436;8.672;2023-07-29T10:44:45;1.10;;;0.95;;
76256;SDS011;65074;50.436;8.672;2023-07-29T10:47:12;1.38;;;1.00;;
76256;SDS011;65074;50.436;8.672;2023-07-29T10:49:39;1.23;;;1.00;;
76256;SDS011;65074;50.436;8.672;2023-07-29T10:52:05;1.10;;;1.00;;
76256;SDS011;65074;50.436;8.672;2023-07-29T10:54:31;1.00;;;0.80;;
76256;SDS011;65074;50.436;8.672;2023-07-29T10:57:06;1.88;;;1.02;;
76256;SDS011;65074;50.436;8.672;2023-07-29T10:59:31;1.50;;;1.20;;
76256;SDS011;65074;50.436;8.672;2023-07-29T11:01:58;1.70;;;1.10;;
76256;SDS011;65074;50.436;8.672;2023-07-29T11:04:24;1.60;;;1.08;;
76256;SDS011;65074;50.436;8.672;2023-07-29T11:17:36;1.33;;;1.05;;
76256;SDS011;65074;50.436;8.672;2023-07-29T11:20:02;2.40;;;1.10;;
76256;SDS011;65074;50.436;8.672;2023-07-29T11:22:28;1.00;;;0.90;;
76256;SDS011;65074;50.436;8.672;2023-07-29T11:24:53;1.17;;;0.90;;
76256;SDS011;65074;50.436;8.672;2023-07-29T11:27:19;2.85;;;1.20;;
76256;SDS011;65074;50.436;8.672;2023-07-29T11:29:44;1.37;;;1.20;;
76256;SDS011;65074;50.436;8.672;2023-07-29T11:32:09;1.50;;;1.03;;
76256;SDS011;65074;50.436;8.672;2023-07-29T11:34:35;2.10;;;1.20;;
76256;SDS011;65074;50.436;8.672;2023-07-29T11:37:00;3.13;;;1.10;;
76256;SDS011;65074;50.436;8.672;2023-07-29T11:39:25;1.00;;;0.90;;
76256;SDS011;65074;50.436;8.672;2023-07-29T11:41:50;3.13;;;1.20;;
76256;SDS011;65074;50.436;8.672;2023-07-29T11:44:18;1.10;;;0.80;;
76256;SDS011;65074;50.436;8.672;2023-07-29T11:46:44;1.02;;;0.90;;
76256;SDS011;65074;50.436;8.672;2023-07-29T11:49:09;1.10;;;0.90;;
76256;SDS011;65074;50.436;8.672;2023-07-29T11:51:35;2.03;;;1.15;;
76256;SDS011;65074;50.436;8.672;2023-07-29T11:54:01;1.70;;;0.90;;
76256;SDS011;65074;50.436;8.672;2023-07-29T11:56:26;1.50;;;1.00;;
76256;SDS011;65074;50.436;8.672;2023-07-29T11:58:52;0.93;;;0.80;;
76256;SDS011;65074;50.436;8.672;2023-07-29T12:01:18;1.00;;;0.90;;
76256;SDS011;65074;50.436;8.672;2023-07-29T12:03:43;2.27;;;1.03;;
76256;SDS011;65074;50.436;8.672;2023-07-29T12:06:09;1.58;;;1.10;;
76256;SDS011;65074;50.436;8.672;2023-07-29T12:08:34;1.42;;;1.13;;
76256;SDS011;65074;50.436;8.672;2023-07-29T12:11:00;1.42;;;1.10;;
76256;SDS011;65074;50.436;8.672;2023-07-29T12:13:25;4.00;;;1.17;;
76256;SDS011;65074;50.436;8.672;2023-07-29T12:15:50;1.80;;;1.07;;
76256;SDS011;65074;50.436;8.672;2023-07-29T12:18:16;1.63;;;1.20;;
76256;SDS011;65074;50.436;8.672;2023-07-29T12:20:41;1.83;;;0.90;;
76256;SDS011;65074;50.436;8.672;2023-07-29T12:23:07;1.42;;;1.15;;
76256;SDS011;65074;50.436;8.672;2023-07-29T12:25:33;1.63;;;0.98;;
76256;SDS011;65074;50.436;8.672;2023-07-29T12:28:03;1.50;;;1.20;;
76256;SDS011;65074;50.436;8.672;2023-07-29T12:30:28;1.35;;;1.08;;
76256;SDS011;65074;50.436;8.672;2023-07-29T12:32:54;1.65;;;1.13;;
76256;SDS011;65074;50.436;8.672;2023-07-29T12:35:19;3.03;;;1.20;;
76256;SDS011;65074;50.436;8.672;2023-07-29T12:37:44;1.70;;;1.17;;
76256;SDS011;65074;50.436;8.672;2023-07-29T12:40:22;1.52;;;1.20;;
76256;SDS011;65074;50.436;8.672;2023-07-29T12:42:48;1.00;;;0.90;;
76256;SDS011;65074;50.436;8.672;2023-07-29T12:45:15;2.20;;;1.08;;
76256;SDS011;65074;50.436;8.672;2023-07-29T12:47:40;1.45;;;1.20;;
76256;SDS011;65074;50.436;8.672;2023-07-29T12:50:06;2.97;;;1.30;;
76256;SDS011;65074;50.436;8.672;2023-07-29T12:52:31;2.22;;;1.45;;
76256;SDS011;65074;50.436;8.672;2023-07-29T12:54:56;1.87;;;1.30;;
76256;SDS011;65074;50.436;8.672;2023-07-29T12:57:21;1.10;;;0.93;;
76256;SDS011;65074;50.436;8.672;2023-07-29T12:59:47;1.20;;;1.03;;
76256;SDS011;65074;50.436;8.672;2023-07-29T13:02:12;1.40;;;1.00;;
76256;SDS011;65074;50.436;8.672;2023-07-29T13:04:37;1.70;;;1.20;;
76256;SDS011;65074;50.436;8.672;2023-07-29T13:07:02;3.13;;;1.10;;
76256;SDS011;65074;50.436;8.672;2023-07-29T13:09:28;1.10;;;1.00;;
76256;SDS011;65074;50.436;8.672;2023-07-29T13:11:53;1.10;;;1.00;;
76256;SDS011;65074;50.436;8.672;2023-07-29T13:14:18;1.47;;;1.17;;
76256;SDS011;65074;50.436;8.672;2023-07-29T13:16:43;1.57;;;1.10;;
76256;SDS011;65074;50.436;8.672;2023-07-29T13:19:09;1.20;;;1.00;;
76256;SDS011;65074;50.436;8.672;2023-07-29T13:21:34;1.60;;;1.30;;
76256;SDS011;65074;50.436;8.672;2023-07-29T13:23:59;1.73;;;1.27;;
76256;SDS011;65074;50.436;8.672;2023-07-29T13:26:24;1.40;;;1.30;;
76256;SDS011;65074;50.436;8.672;2023-07-29T13:28:50;3.70;;;1.30;;
76256;SDS011;65074;50.436;8.672;2023-07-29T13:31:15;1.10;;;1.00;;
76256;SDS011;65074;50.436;8.672;2023-07-29T13:33:40;1.45;;;1.10;;
76256;SDS011;65074;50.436;8.672;2023-07-29T13:36:06;2.08;;;1.20;;
76256;SDS011;65074;50.436;8.672;2023-07-29T13:38:33;1.67;;;1.30;;
76256;SDS011;65074;50.436;8.672;2023-07-29T13:40:58;1.57;;;1.20;;
76256;SDS011;65074;50.436;8.672;2023-07-29T13:43:23;1.40;;;1.17;;
76256;SDS011;65074;50.436;8.672;2023-07-29T13:45:49;1.33;;;1.20;;
76256;SDS011;65074;50.436;8.672;2023-07-29T13:48:15;1.30;;;1.20;;
76256;SDS011;65074;50.436;8.672;2023-07-29T13:50:40;1.63;;;1.23;;
76256;SDS011;65074;50.436;8.672;2023-07-29T13:53:06;1.60;;;1.30;;
76256;SDS011;65074;50.436;8.672;2023-07-29T13:55:31;1.20;;;1.00;;
76256;SDS011;65074;50.436;8.672;2023-07-29T13:57:57;1.97;;;1.50;;
76256;SDS011;65074;50.436;8.672;2023-07-29T14:00:22;2.07;;;1.33;;
76256;SDS011;65074;50.436;8.672;2023-07-29T14:02:47;1.40;;;1.10;;
76256;SDS011;65074;50.436;8.672;2023-07-29T14:05:12;1.20;;;1.10;;
76256;SDS011;65074;50.436;8.672;2023-07-29T14:07:39;1.63;;;1.13;;
76256;SDS011;65074;50.436;8.672;2023-07-29T14:10:04;2.77;;;1.30;;
76256;SDS011;65074;50.436;8.672;2023-07-29T14:12:29;2.85;;;1.60;;
76256;SDS011;65074;50.436;8.672;2023-07-29T14:14:55;1.60;;;1.27;;
76256;SDS011;65074;50.436;8.672;2023-07-29T14:17:20;1.30;;;1.20;;
76256;SDS011;65074;50.436;8.672;2023-07-29T14:19:45;1.77;;;1.20;;
76256;SDS011;65074;50.436;8.672;2023-07-29T14:22:10;1.73;;;1.10;;
76256;SDS011;65074;50.436;8.672;2023-07-29T14:24:36;1.63;;;1.40;;
76256;SDS011;65074;50.436;8.672;2023-07-29T14:27:01;2.60;;;1.30;;
76256;SDS011;65074;50.436;8.672;2023-07-29T14:29:26;1.90;;;1.53;;
76256;SDS011;65074;50.436;8.672;2023-07-29T14:31:51;1.60;;;1.30;;
76256;SDS011;65074;50.436;8.672;2023-07-29T14:34:17;1.63;;;1.33;;
76256;SDS011;65074;50.436;8.672;2023-07-29T14:36:42;2.00;;;1.30;;
76256;SDS011;65074;50.436;8.672;2023-07-29T14:39:07;1.90;;;1.60;;
76256;SDS011;65074;50.436;8.672;2023-07-29T14:41:32;1.63;;;1.27;;
76256;SDS011;65074;50.436;8.672;2023-07-29T14:43:58;1.60;;;1.50;;
76256;SDS011;65074;50.436;8.672;2023-07-29T14:46:23;1.90;;;1.30;;
76256;SDS011;65074;50.436;8.672;2023-07-29T14:48:48;1.77;;;1.37;;
76256;SDS011;65074;50.436;8.672;2023-07-29T14:51:13;3.10;;;1.50;;
76256;SDS011;65074;50.436;8.672;2023-07-29T14:53:39;1.95;;;1.20;;
76256;SDS011;65074;50.436;8.672;2023-07-29T14:56:04;2.00;;;1.10;;